createdAt,value
2024-01-05T00:00:05.963Z,45.65
2024-01-05T00:01:06.058Z,45.72
2024-01-05T00:02:06.124Z,45.59
2024-01-05T00:03:06.257Z,45.53
2024-01-05T00:04:06.501Z,45.55
2024-01-05T00:05:06.384Z,45.87
2024-01-05T00:06:06.548Z,45.96
2024-01-05T00:07:06.664Z,45.95
2024-01-05T00:08:06.673Z,46.33
2024-01-05T00:09:06.813Z,46.04
2024-01-05T00:10:06.825Z,45.76
2024-01-05T00:11:06.902Z,45.66
2024-01-05T00:12:07.577Z,45.54
2024-01-05T00:13:07.228Z,45.56
2024-01-05T00:14:07.347Z,45.60
2024-01-05T00:15:07.622Z,45.82
2024-01-05T00:16:07.501Z,45.70
2024-01-05T00:17:07.586Z,45.74
2024-01-05T00:18:07.886Z,45.76
2024-01-05T00:19:07.971Z,45.96
2024-01-05T00:20:07.960Z,46.03
2024-01-05T00:21:08.034Z,45.76
2024-01-05T00:22:08.088Z,45.67
2024-01-05T00:23:08.217Z,46.13
2024-01-05T00:24:08.354Z,46.02
2024-01-05T00:25:08.424Z,46.08
2024-01-05T00:26:08.562Z,46.24
2024-01-05T00:27:08.726Z,46.27
2024-01-05T00:28:08.801Z,46.29
2024-01-05T00:29:08.966Z,46.09
2024-01-05T00:30:09.132Z,46.40
2024-01-05T00:31:09.246Z,46.29
2024-01-05T00:32:09.409Z,46.36
2024-01-05T00:33:09.456Z,46.07
2024-01-05T00:34:09.634Z,45.93
2024-01-05T00:35:09.619Z,45.91
2024-01-05T00:36:09.764Z,45.96
2024-01-05T00:37:09.851Z,45.96
2024-01-05T00:38:09.995Z,45.99
2024-01-05T00:39:10.130Z,45.97
2024-01-05T00:40:10.249Z,46.04
2024-01-05T00:41:10.342Z,46.17
2024-01-05T00:42:10.508Z,46.08
2024-01-05T00:43:10.630Z,46.05
2024-01-05T00:44:10.688Z,46.01
2024-01-05T00:45:10.836Z,46.11
2024-01-05T00:46:10.889Z,46.04
2024-01-05T00:47:11.086Z,46.44
2024-01-05T00:48:11.319Z,46.11
2024-01-05T00:49:11.324Z,46.19
2024-01-05T00:50:11.373Z,46.14
2024-01-05T00:51:11.517Z,46.14
2024-01-05T00:52:11.603Z,46.13
2024-01-05T00:53:11.728Z,46.07
2024-01-05T00:54:11.830Z,46.12
2024-01-05T00:55:11.917Z,46.05
2024-01-05T00:56:11.985Z,46.05
2024-01-05T00:57:12.196Z,46.09
2024-01-05T00:58:12.266Z,46.09
2024-01-05T00:59:12.361Z,46.04
2024-01-05T01:00:12.497Z,46.20
2024-01-05T01:01:12.664Z,45.81
2024-01-05T01:02:12.795Z,45.79
2024-01-05T01:03:12.977Z,46.29
2024-01-05T01:04:13.156Z,45.97
2024-01-05T01:05:13.231Z,46.26
2024-01-05T01:06:13.417Z,46.17
2024-01-05T01:07:13.732Z,46.33
2024-01-05T01:08:13.606Z,46.23
2024-01-05T01:09:13.792Z,46.12
2024-01-05T01:10:13.818Z,46.07
2024-01-05T01:11:13.977Z,46.10
2024-01-05T01:12:14.195Z,46.20
2024-01-05T01:13:14.269Z,46.01
2024-01-05T01:14:14.344Z,46.28
2024-01-05T01:15:14.529Z,45.89
2024-01-05T01:16:14.620Z,45.86
2024-01-05T01:17:14.802Z,46.02
2024-01-05T01:18:15.013Z,46.16
2024-01-05T01:19:15.121Z,46.10
2024-01-05T01:20:15.072Z,45.98
2024-01-05T01:21:15.227Z,46.15
2024-01-05T01:22:15.387Z,46.00
2024-01-05T01:23:15.515Z,46.05
2024-01-05T01:24:15.698Z,46.03
2024-01-05T01:25:15.789Z,46.30
2024-01-05T01:26:15.842Z,46.18
2024-01-05T01:27:16.092Z,46.35
2024-01-05T01:28:16.185Z,46.31
2024-01-05T01:29:16.301Z,46.24
2024-01-05T01:30:16.475Z,46.13
2024-01-05T01:31:17.536Z,46.13
2024-01-05T01:32:16.519Z,46.18
2024-01-05T01:33:16.833Z,46.26
2024-01-05T01:34:16.823Z,46.43
2024-01-05T01:35:16.787Z,46.44
2024-01-05T01:36:16.953Z,46.39
2024-01-05T01:37:17.000Z,46.48
2024-01-05T01:38:17.090Z,46.45
2024-01-05T01:39:17.240Z,46.39
2024-01-05T01:40:17.250Z,46.56
2024-01-05T01:41:17.364Z,46.49
2024-01-05T01:42:17.534Z,46.49
2024-01-05T01:43:17.634Z,46.70
2024-01-05T01:44:17.682Z,46.80
2024-01-05T01:45:17.796Z,46.84
2024-01-05T01:46:17.850Z,46.64
2024-01-05T01:47:17.929Z,46.87
2024-01-05T01:48:18.141Z,47.01
2024-01-05T01:49:18.226Z,47.25
2024-01-05T01:50:18.185Z,47.45
2024-01-05T01:51:18.383Z,47.29
2024-01-05T01:52:18.372Z,47.38
2024-01-05T01:53:18.473Z,47.36
2024-01-05T01:54:18.611Z,47.43
2024-01-05T01:55:18.614Z,47.51
2024-01-05T01:56:18.749Z,47.61
2024-01-05T01:57:18.888Z,47.55
2024-01-05T01:58:18.939Z,47.89
2024-01-05T01:59:19.037Z,47.92
2024-01-05T02:00:19.237Z,47.69
2024-01-05T02:01:19.225Z,47.72
2024-01-05T02:02:19.247Z,47.71
2024-01-05T02:03:19.595Z,47.91
2024-01-05T02:04:19.602Z,47.63
2024-01-05T02:05:19.571Z,47.51
2024-01-05T02:06:19.650Z,47.52
2024-01-05T02:07:19.740Z,47.66
2024-01-05T02:08:19.900Z,47.22
2024-01-05T02:09:20.070Z,47.11
2024-01-05T02:10:20.086Z,47.10
2024-01-05T02:11:20.185Z,47.25
2024-01-05T02:12:20.284Z,47.23
2024-01-05T02:13:20.379Z,47.19
2024-01-05T02:14:20.458Z,47.74
2024-01-05T02:15:20.624Z,47.40
2024-01-05T02:16:20.706Z,47.13
2024-01-05T02:17:20.853Z,47.04
2024-01-05T02:18:21.019Z,47.00
2024-01-05T02:19:21.295Z,46.91
2024-01-05T02:20:21.158Z,46.84
2024-01-05T02:21:21.296Z,46.98
2024-01-05T02:22:21.375Z,46.95
2024-01-05T02:23:21.484Z,46.69
2024-01-05T02:24:21.589Z,46.62
2024-01-05T02:25:21.660Z,46.58
2024-01-05T02:26:21.785Z,46.47
2024-01-05T02:27:21.912Z,46.46
2024-01-05T02:28:21.979Z,46.41
2024-01-05T02:29:22.097Z,46.43
2024-01-05T02:30:22.354Z,46.21
2024-01-05T02:31:22.424Z,46.37
2024-01-05T02:32:22.470Z,46.39
2024-01-05T02:33:22.782Z,46.42
2024-01-05T02:34:22.903Z,46.51
2024-01-05T02:35:22.956Z,46.62
2024-01-05T02:36:23.092Z,46.76
2024-01-05T02:37:23.159Z,46.61
2024-01-05T02:38:23.290Z,46.55
2024-01-05T02:39:23.389Z,46.57
2024-01-05T02:40:23.499Z,46.65
2024-01-05T02:41:23.560Z,46.61
2024-01-05T02:42:23.688Z,46.72
2024-01-05T02:43:23.838Z,46.87
2024-01-05T02:44:23.866Z,46.77
2024-01-05T02:45:24.086Z,46.89
2024-01-05T02:46:24.097Z,47.00
2024-01-05T02:47:24.264Z,47.23
2024-01-05T02:48:24.404Z,47.25
2024-01-05T02:49:24.478Z,47.14
2024-01-05T02:50:24.546Z,47.06
2024-01-05T02:51:24.601Z,46.95
2024-01-05T02:52:24.691Z,47.06
2024-01-05T02:53:24.828Z,47.04
2024-01-05T02:54:24.910Z,46.97
2024-01-05T02:55:25.048Z,46.84
2024-01-05T02:56:25.104Z,46.95
2024-01-05T02:57:25.524Z,46.78
2024-01-05T02:58:25.300Z,46.69
2024-01-05T02:59:25.416Z,46.50
2024-01-05T03:00:25.614Z,46.49
2024-01-05T03:01:25.745Z,46.45
2024-01-05T03:02:25.816Z,46.70
2024-01-05T03:03:26.047Z,46.75
2024-01-05T03:04:26.110Z,46.86
2024-01-05T03:05:26.199Z,46.80
2024-01-05T03:06:26.352Z,46.88
2024-01-05T03:07:26.458Z,46.79
2024-01-05T03:08:26.583Z,46.59
2024-01-05T03:09:26.748Z,46.75
2024-01-05T03:10:26.829Z,46.83
2024-01-05T03:11:27.008Z,46.73
2024-01-05T03:12:27.205Z,46.73
2024-01-05T03:13:27.319Z,47.08
2024-01-05T03:14:27.440Z,47.09
2024-01-05T03:15:27.664Z,47.02
2024-01-05T03:16:27.607Z,47.02
2024-01-05T03:17:27.825Z,47.24
2024-01-05T03:18:28.024Z,47.00
2024-01-05T03:19:28.007Z,47.00
2024-01-05T03:20:28.008Z,46.88
2024-01-05T03:21:28.191Z,47.06
2024-01-05T03:22:31.353Z,46.92
2024-01-05T03:23:28.426Z,46.95
2024-01-05T03:24:28.684Z,46.91
2024-01-05T03:25:28.605Z,46.78
2024-01-05T03:26:28.642Z,46.79
2024-01-05T03:27:28.746Z,46.87
2024-01-05T03:28:28.808Z,46.81
2024-01-05T03:29:28.880Z,46.82
2024-01-05T03:30:29.031Z,46.76
2024-01-05T03:31:29.153Z,47.00
2024-01-05T03:32:29.216Z,46.95
2024-01-05T03:33:29.290Z,47.04
2024-01-05T03:34:29.354Z,47.01
2024-01-05T03:35:29.387Z,46.99
2024-01-05T03:36:29.481Z,46.79
2024-01-05T03:37:29.577Z,46.75
2024-01-05T03:38:29.647Z,46.85
2024-01-05T03:39:29.795Z,46.92
2024-01-05T03:40:29.793Z,47.04
2024-01-05T03:41:29.910Z,47.17
2024-01-05T03:42:30.047Z,47.21
2024-01-05T03:43:30.088Z,47.01
2024-01-05T03:44:30.214Z,46.91
2024-01-05T03:45:30.337Z,46.81
2024-01-05T03:46:30.323Z,46.81
2024-01-05T03:47:30.487Z,46.71
2024-01-05T03:48:30.591Z,46.74
2024-01-05T03:49:30.623Z,46.63
2024-01-05T03:50:30.640Z,46.62
2024-01-05T03:51:30.812Z,46.64
2024-01-05T03:52:30.804Z,46.69
2024-01-05T03:53:30.929Z,46.60
2024-01-05T03:54:31.151Z,46.70
2024-01-05T03:55:31.098Z,46.82
2024-01-05T03:56:31.253Z,46.75
2024-01-05T03:57:31.529Z,46.65
2024-01-05T03:58:31.573Z,46.76
2024-01-05T03:59:31.672Z,46.80
2024-01-05T04:00:31.860Z,46.57
2024-01-05T04:01:31.961Z,46.39
2024-01-05T04:02:32.175Z,46.50
2024-01-05T04:03:32.380Z,46.84
2024-01-05T04:04:32.503Z,46.91
2024-01-05T04:05:32.494Z,47.05
2024-01-05T04:06:32.690Z,47.03
2024-01-05T04:07:32.725Z,47.01
2024-01-05T04:08:32.821Z,47.02
2024-01-05T04:09:32.977Z,46.99
2024-01-05T04:10:33.041Z,47.05
2024-01-05T04:11:33.106Z,46.95
2024-01-05T04:12:33.244Z,47.07
2024-01-05T04:13:33.305Z,47.11
2024-01-05T04:14:33.469Z,46.89
2024-01-05T04:15:35.933Z,47.18
2024-01-05T04:16:33.710Z,47.00
2024-01-05T04:17:33.814Z,47.10
2024-01-05T04:18:33.872Z,47.05
2024-01-05T04:19:34.067Z,46.93
2024-01-05T04:20:34.017Z,46.80
2024-01-05T04:21:34.226Z,46.95
2024-01-05T04:22:34.162Z,46.92
2024-01-05T04:23:34.245Z,46.91
2024-01-05T04:24:34.467Z,46.78
2024-01-05T04:25:34.418Z,46.53
2024-01-05T04:26:34.476Z,46.46
2024-01-05T04:27:34.663Z,46.64
2024-01-05T04:28:34.654Z,46.69
2024-01-05T04:29:34.743Z,46.70
2024-01-05T04:30:34.898Z,46.85
2024-01-05T04:31:34.896Z,46.91
2024-01-05T04:32:36.111Z,46.83
2024-01-05T04:33:35.153Z,46.73
2024-01-05T04:34:35.260Z,46.57
2024-01-05T04:35:35.233Z,46.48
2024-01-05T04:36:35.345Z,46.60
2024-01-05T04:37:35.367Z,46.69
2024-01-05T04:38:35.480Z,46.78
2024-01-05T04:39:35.629Z,46.97
2024-01-05T04:40:35.619Z,46.76
2024-01-05T04:41:35.722Z,46.87
2024-01-05T04:42:35.841Z,46.80
2024-01-05T04:43:35.941Z,47.04
2024-01-05T04:44:35.975Z,47.17
2024-01-05T04:45:36.068Z,46.89
2024-01-05T04:46:36.149Z,47.04
2024-01-05T04:47:36.433Z,47.06
2024-01-05T04:48:36.413Z,47.14
2024-01-05T04:49:36.466Z,47.21
2024-01-05T04:50:36.479Z,47.37
2024-01-05T04:51:36.714Z,47.16
2024-01-05T04:52:36.650Z,46.86
2024-01-05T04:53:36.716Z,46.60
2024-01-05T04:54:36.884Z,46.48
2024-01-05T04:55:36.870Z,46.58
2024-01-05T04:56:36.996Z,46.85
2024-01-05T04:57:37.190Z,47.03
2024-01-05T04:58:37.172Z,47.31
2024-01-05T04:59:37.264Z,47.07
2024-01-05T05:00:37.435Z,46.89
2024-01-05T05:01:37.443Z,46.60
2024-01-05T05:02:37.542Z,46.91
2024-01-05T05:03:37.665Z,46.88
2024-01-05T05:04:37.715Z,47.26
2024-01-05T05:05:37.906Z,47.69
2024-01-05T05:06:38.148Z,47.80
2024-01-05T05:07:38.079Z,47.78
2024-01-05T05:08:38.188Z,47.68
2024-01-05T05:09:38.374Z,47.49
2024-01-05T05:10:38.437Z,47.74
2024-01-05T05:11:38.607Z,47.66
2024-01-05T05:12:38.795Z,47.65
2024-01-05T05:13:38.843Z,47.55
2024-01-05T05:14:38.985Z,47.59
2024-01-05T05:15:39.183Z,47.42
2024-01-05T05:16:39.166Z,47.33
2024-01-05T05:17:39.324Z,47.41
2024-01-05T05:18:39.616Z,47.35
2024-01-05T05:19:39.640Z,47.33
2024-01-05T05:20:39.718Z,47.51
2024-01-05T05:21:39.887Z,47.48
2024-01-05T05:22:39.959Z,47.61
2024-01-05T05:23:40.086Z,47.70
2024-01-05T05:24:47.988Z,47.97
2024-01-05T05:25:47.991Z,47.53
2024-01-05T05:26:47.946Z,47.49
2024-01-05T05:27:47.924Z,47.49
2024-01-05T05:28:48.026Z,47.35
2024-01-05T05:29:47.922Z,47.38
2024-01-05T05:30:48.041Z,47.27
2024-01-05T05:31:48.120Z,47.04
2024-01-05T05:32:47.878Z,46.97
2024-01-05T05:33:48.014Z,46.80
2024-01-05T05:34:47.858Z,47.08
2024-01-05T05:35:47.784Z,46.92
2024-01-05T05:36:47.797Z,47.32
2024-01-05T05:37:47.772Z,47.22
2024-01-05T05:38:47.762Z,47.79
2024-01-05T05:39:47.737Z,47.39
2024-01-05T05:40:47.724Z,47.32
2024-01-05T05:41:47.735Z,47.26
2024-01-05T05:42:47.722Z,47.04
2024-01-05T05:43:47.758Z,47.04
2024-01-05T05:44:47.678Z,47.39
2024-01-05T05:45:47.698Z,47.08
2024-01-05T05:46:47.642Z,46.91
2024-01-05T05:47:47.830Z,46.97
2024-01-05T05:48:47.719Z,46.66
2024-01-05T05:49:47.810Z,46.70
2024-01-05T05:50:47.604Z,46.87
2024-01-05T05:51:47.803Z,46.56
2024-01-05T05:52:47.564Z,46.48
2024-01-05T05:53:47.603Z,46.67
2024-01-05T05:54:47.595Z,46.82
2024-01-05T05:55:47.570Z,46.62
2024-01-05T05:56:47.562Z,46.55
2024-01-05T05:57:47.559Z,46.42
2024-01-05T05:58:47.562Z,46.53
2024-01-05T05:59:47.511Z,46.35
2024-01-05T06:00:47.637Z,46.13
2024-01-05T06:02:10.166Z,46.19
2024-01-05T06:02:47.444Z,46.18
2024-01-05T06:03:47.575Z,46.13
2024-01-05T06:04:47.716Z,46.02
2024-01-05T06:05:47.462Z,45.98
2024-01-05T06:06:47.533Z,45.90
2024-01-05T06:07:47.482Z,45.97
2024-01-05T06:08:47.471Z,46.16
2024-01-05T06:09:47.488Z,45.92
2024-01-05T06:10:47.854Z,45.74
2024-01-05T06:11:47.680Z,45.63
2024-01-05T06:12:47.495Z,45.75
2024-01-05T06:13:47.411Z,46.15
2024-01-05T06:14:47.325Z,46.26
2024-01-05T06:15:47.329Z,45.92
2024-01-05T06:16:47.381Z,45.81
2024-01-05T06:17:47.437Z,46.02
2024-01-05T06:18:47.589Z,46.12
2024-01-05T06:19:47.322Z,46.35
2024-01-05T06:20:47.259Z,46.33
2024-01-05T06:21:47.575Z,46.27
2024-01-05T06:22:47.326Z,46.29
2024-01-05T06:23:47.273Z,46.05
2024-01-05T06:24:47.362Z,45.93
2024-01-05T06:25:47.393Z,45.86
2024-01-05T06:26:47.402Z,45.81
2024-01-05T06:27:47.422Z,45.76
2024-01-05T06:28:47.521Z,45.75
2024-01-05T06:29:47.514Z,45.67
2024-01-05T06:30:47.561Z,46.08
2024-01-05T06:31:47.820Z,46.21
2024-01-05T06:32:47.570Z,46.21
2024-01-05T06:33:47.724Z,46.43
2024-01-05T06:34:47.715Z,46.29
2024-01-05T06:35:47.609Z,46.14
2024-01-05T06:36:47.669Z,46.13
2024-01-05T06:37:47.673Z,45.91
2024-01-05T06:38:47.790Z,45.97
2024-01-05T06:39:47.788Z,45.56
2024-01-05T06:40:47.795Z,45.53
2024-01-05T06:41:48.729Z,45.48
2024-01-05T06:42:47.917Z,45.36
2024-01-05T06:43:47.820Z,45.18
2024-01-05T06:44:47.819Z,45.40
2024-01-05T06:45:47.916Z,44.92
2024-01-05T06:47:10.705Z,44.72
2024-01-05T06:47:48.316Z,44.76
2024-01-05T06:48:48.146Z,45.05
2024-01-05T06:49:47.989Z,45.05
2024-01-05T06:50:48.085Z,44.90
2024-01-05T06:51:48.149Z,44.68
2024-01-05T06:52:47.844Z,44.60
2024-01-05T06:53:47.899Z,44.33
2024-01-05T06:54:47.709Z,44.76
2024-01-05T06:55:48.226Z,45.41
2024-01-05T06:56:47.724Z,45.03
2024-01-05T06:57:47.746Z,44.87
2024-01-05T06:58:47.751Z,44.68
2024-01-05T06:59:47.638Z,44.75
2024-01-05T07:00:48.434Z,44.61
2024-01-05T07:01:47.864Z,44.59
2024-01-05T07:02:47.553Z,44.24
2024-01-05T07:03:47.934Z,43.80
2024-01-05T07:04:47.477Z,43.71
2024-01-05T07:05:47.442Z,43.92
2024-01-05T07:06:47.605Z,43.91
2024-01-05T07:07:47.278Z,43.54
2024-01-05T07:08:47.629Z,43.43
2024-01-05T07:09:47.789Z,43.65
2024-01-05T07:10:47.822Z,43.91
2024-01-05T07:11:47.426Z,43.95
2024-01-05T07:12:47.320Z,43.94
2024-01-05T07:13:47.364Z,44.28
2024-01-05T07:14:47.817Z,44.40
2024-01-05T07:15:47.466Z,44.02
2024-01-05T07:16:47.430Z,43.93
2024-01-05T07:17:47.902Z,44.08
2024-01-05T07:18:48.104Z,44.30
2024-01-05T07:19:47.575Z,44.54
2024-01-05T07:20:47.519Z,45.19
2024-01-05T07:21:47.620Z,44.86
2024-01-05T07:22:47.591Z,45.25
2024-01-05T07:23:47.605Z,45.27
2024-01-05T07:26:10.183Z,44.60
2024-01-05T07:26:47.618Z,44.71
2024-01-05T07:27:47.493Z,45.56
2024-01-05T07:28:47.497Z,45.09
2024-01-05T07:29:47.414Z,45.06
2024-01-05T07:30:47.535Z,44.44
2024-01-05T07:31:47.357Z,45.15
2024-01-05T07:32:47.338Z,45.58
2024-01-05T07:33:47.342Z,45.61
2024-01-05T07:34:47.266Z,45.31
2024-01-05T07:35:47.175Z,45.00
2024-01-05T07:36:47.207Z,45.14
2024-01-05T07:37:47.116Z,45.29
2024-01-05T07:38:47.070Z,45.00
2024-01-05T07:39:47.069Z,44.94
2024-01-05T07:40:47.019Z,44.85
2024-01-05T07:41:47.260Z,44.55
2024-01-05T07:42:47.030Z,44.74
2024-01-05T07:43:46.993Z,44.80
2024-01-05T07:44:47.012Z,45.77
2024-01-05T07:45:47.897Z,46.06
2024-01-05T07:46:47.116Z,45.95
2024-01-05T07:47:46.972Z,45.92
2024-01-05T07:48:47.097Z,45.80
2024-01-05T07:49:47.003Z,46.08
2024-01-05T07:50:46.889Z,46.03
2024-01-05T07:51:47.140Z,45.47
2024-01-05T07:52:46.855Z,45.01
2024-01-05T07:53:46.952Z,44.95
2024-01-05T07:54:46.870Z,44.54
2024-01-05T07:55:46.910Z,44.96
2024-01-05T07:56:46.827Z,44.93
2024-01-05T07:57:48.515Z,44.71
2024-01-05T07:58:46.815Z,44.38
2024-01-05T07:59:46.805Z,44.29
2024-01-05T08:00:46.834Z,43.84
2024-01-05T08:01:46.926Z,43.65
2024-01-05T08:02:46.746Z,43.40
2024-01-05T08:03:46.750Z,43.92
2024-01-05T08:04:46.623Z,44.13
2024-01-05T08:05:47.822Z,43.94
2024-01-05T08:06:46.569Z,43.54
2024-01-05T08:07:46.532Z,43.13
2024-01-05T08:08:46.459Z,43.40
2024-01-05T08:09:46.559Z,43.71
2024-01-05T08:10:46.473Z,43.92
2024-01-05T08:11:46.811Z,43.91
2024-01-05T08:12:46.584Z,44.59
2024-01-05T08:13:46.493Z,44.18
2024-01-05T08:14:46.477Z,43.79
2024-01-05T08:15:46.444Z,43.20
2024-01-05T08:16:46.411Z,42.85
2024-01-05T08:17:46.410Z,43.08
2024-01-05T08:18:46.442Z,43.19
2024-01-05T08:19:46.498Z,42.56
2024-01-05T08:20:46.552Z,43.85
2024-01-05T08:21:46.740Z,45.43
2024-01-05T08:22:46.305Z,46.17
2024-01-05T08:23:46.350Z,45.91
2024-01-05T08:24:46.424Z,45.83
2024-01-05T08:25:46.270Z,45.72
2024-01-05T08:26:46.259Z,45.14
2024-01-05T08:27:46.242Z,44.78
2024-01-05T08:28:46.224Z,44.53
2024-01-05T08:29:46.174Z,45.11
2024-01-05T08:30:46.168Z,45.94
2024-01-05T08:31:46.566Z,46.12
2024-01-05T08:32:46.353Z,45.45
2024-01-05T08:33:46.347Z,45.00
2024-01-05T08:34:46.278Z,44.84
2024-01-05T08:35:46.313Z,44.65
2024-01-05T08:36:46.313Z,44.90
2024-01-05T08:37:46.346Z,44.20
2024-01-05T08:38:46.488Z,43.60
2024-01-05T08:39:46.555Z,43.37
2024-01-05T08:40:46.476Z,43.67
2024-01-05T08:41:46.440Z,43.64
2024-01-05T08:42:46.435Z,43.64
2024-01-05T08:43:46.417Z,43.36
2024-01-05T08:44:46.395Z,42.84
2024-01-05T08:45:46.458Z,42.38
2024-01-05T08:46:46.416Z,42.64
2024-01-05T08:47:46.469Z,42.25
2024-01-05T08:48:46.410Z,41.93
2024-01-05T08:49:46.463Z,41.50
2024-01-05T08:50:46.351Z,41.40
2024-01-05T08:51:46.373Z,41.73
2024-01-05T08:52:46.254Z,41.58
2024-01-05T08:53:46.242Z,41.88
2024-01-05T08:54:47.438Z,41.83
2024-01-05T08:55:46.330Z,42.24
2024-01-05T08:56:46.370Z,41.90
2024-01-05T08:57:46.284Z,41.85
2024-01-05T08:58:46.191Z,41.82
2024-01-05T08:59:46.255Z,41.31
2024-01-05T09:00:46.342Z,40.24
2024-01-05T09:01:46.146Z,40.39
2024-01-05T09:02:46.117Z,40.64
2024-01-05T09:03:46.206Z,39.88
2024-01-05T09:04:46.132Z,39.83
2024-01-05T09:05:45.960Z,40.54
2024-01-05T09:06:45.945Z,40.85
2024-01-05T09:07:45.833Z,41.02
2024-01-05T09:08:45.846Z,41.61
2024-01-05T09:09:45.768Z,41.05
2024-01-05T09:10:45.745Z,40.75
2024-01-05T09:11:45.764Z,40.70
2024-01-05T09:12:45.658Z,40.39
2024-01-05T09:13:45.568Z,40.48
2024-01-05T09:14:45.547Z,40.42
2024-01-05T09:15:45.560Z,40.46
2024-01-05T09:16:45.529Z,40.57
2024-01-05T09:17:45.419Z,40.68
2024-01-05T09:18:45.468Z,40.55
2024-01-05T09:19:45.543Z,40.45
2024-01-05T09:20:45.311Z,40.85
2024-01-05T09:21:45.268Z,40.95
2024-01-05T09:22:45.111Z,40.71
2024-01-05T09:23:45.120Z,40.53
2024-01-05T09:24:45.168Z,40.95
2024-01-05T09:25:46.662Z,40.53
2024-01-05T09:26:45.034Z,40.30
2024-01-05T09:27:44.994Z,39.73
2024-01-05T09:28:46.483Z,39.81
2024-01-05T09:29:44.959Z,39.69
2024-01-05T09:30:44.995Z,40.26
2024-01-05T09:31:44.927Z,40.52
2024-01-05T09:32:44.923Z,40.68
2024-01-05T09:33:45.074Z,41.09
2024-01-05T09:34:44.807Z,41.59
2024-01-05T09:35:44.785Z,41.34
2024-01-05T09:36:44.841Z,41.43
2024-01-05T09:37:44.592Z,41.76
2024-01-05T09:38:44.611Z,41.29
2024-01-05T09:39:44.691Z,41.09
2024-01-05T09:40:44.633Z,40.78
2024-01-05T09:41:44.667Z,40.49
2024-01-05T09:42:44.602Z,40.72
2024-01-05T09:43:44.526Z,40.80
2024-01-05T09:44:44.556Z,40.21
2024-01-05T09:45:44.572Z,39.92
2024-01-05T09:46:44.461Z,40.27
2024-01-05T09:47:44.613Z,40.91
2024-01-05T09:48:48.485Z,41.39
2024-01-05T09:49:45.357Z,40.97
2024-01-05T09:50:44.867Z,40.77
2024-01-05T09:51:44.338Z,40.37
2024-01-05T09:52:44.106Z,40.03
2024-01-05T09:53:43.987Z,39.60
2024-01-05T09:54:44.036Z,39.22
2024-01-05T09:55:43.828Z,38.61
2024-01-05T09:56:43.805Z,38.66
2024-01-05T09:57:43.779Z,38.08
2024-01-05T09:58:43.636Z,37.58
2024-01-05T09:59:43.644Z,36.74
2024-01-05T10:00:43.557Z,36.52
2024-01-05T10:01:43.460Z,35.77
2024-01-05T10:02:43.463Z,35.99
2024-01-05T10:03:43.310Z,35.55
2024-01-05T10:04:43.370Z,34.48
2024-01-05T10:05:43.360Z,33.85
2024-01-05T10:06:43.201Z,33.06
2024-01-05T10:07:43.069Z,33.12
2024-01-05T10:08:43.078Z,32.61
2024-01-05T10:09:43.149Z,31.69
2024-01-05T10:10:42.990Z,30.24
2024-01-05T10:11:42.887Z,29.56
2024-01-05T10:12:42.908Z,28.56
2024-01-05T10:13:42.692Z,28.28
2024-01-05T10:14:42.699Z,27.88
2024-01-05T10:15:42.614Z,27.14
2024-01-05T10:16:42.413Z,26.35
2024-01-05T10:17:42.389Z,26.16
2024-01-05T10:18:42.439Z,26.49
2024-01-05T10:19:42.309Z,25.70
2024-01-05T10:20:42.155Z,25.14
2024-01-05T10:21:42.126Z,23.88
2024-01-05T10:22:41.949Z,23.86
2024-01-05T10:23:41.942Z,24.37
2024-01-05T10:24:41.949Z,24.26
2024-01-05T10:25:41.768Z,24.44
2024-01-05T10:26:41.588Z,25.08
2024-01-05T10:27:41.589Z,25.56
2024-01-05T10:28:41.481Z,26.38
2024-01-05T10:29:41.368Z,25.45
2024-01-05T10:30:41.362Z,26.07
2024-01-05T10:31:41.335Z,26.38
2024-01-05T10:32:41.949Z,26.85
2024-01-05T10:33:41.192Z,27.14
2024-01-05T10:34:41.129Z,27.92
2024-01-05T10:35:40.910Z,28.07
2024-01-05T10:36:40.860Z,28.43
2024-01-05T10:37:40.721Z,28.86
2024-01-05T10:38:40.815Z,29.03
2024-01-05T10:39:40.695Z,29.91
2024-01-05T10:40:40.548Z,30.19
2024-01-05T10:41:40.547Z,30.54
2024-01-05T10:42:40.478Z,30.40
2024-01-05T10:43:40.436Z,30.73
2024-01-05T10:44:40.333Z,31.27
2024-01-05T10:45:40.302Z,31.21
2024-01-05T10:46:40.147Z,30.81
2024-01-05T10:47:40.117Z,30.67
2024-01-05T10:48:40.195Z,31.74
2024-01-05T10:49:40.080Z,31.03
2024-01-05T10:50:39.880Z,30.93
2024-01-05T10:51:40.094Z,30.96
2024-01-05T10:52:39.896Z,31.49
2024-01-05T10:53:39.921Z,31.99
2024-01-05T10:54:39.825Z,32.14
2024-01-05T10:55:39.781Z,31.99
2024-01-05T10:56:39.668Z,31.85
2024-01-05T10:57:39.810Z,31.72
2024-01-05T10:58:39.634Z,31.66
2024-01-05T10:59:39.524Z,30.96
2024-01-05T11:00:39.572Z,30.97
2024-01-05T11:01:39.486Z,30.65
2024-01-05T11:02:39.407Z,30.70
2024-01-05T11:03:39.438Z,30.04
2024-01-05T11:04:39.429Z,29.28
2024-01-05T11:05:39.335Z,29.37
2024-01-05T11:06:39.248Z,29.32
2024-01-05T11:07:39.236Z,28.94
2024-01-05T11:08:39.077Z,29.70
2024-01-05T11:09:39.028Z,29.32
2024-01-05T11:10:38.936Z,28.89
2024-01-05T11:11:38.895Z,29.41
2024-01-05T11:12:38.887Z,29.44
2024-01-05T11:13:38.887Z,29.60
2024-01-05T11:14:38.748Z,29.44
2024-01-05T11:15:38.753Z,29.71
2024-01-05T11:16:38.624Z,29.86
2024-01-05T11:17:38.666Z,30.19
2024-01-05T11:18:38.682Z,29.71
2024-01-05T11:19:38.556Z,29.93
2024-01-05T11:20:38.405Z,30.24
2024-01-05T11:21:38.343Z,30.51
2024-01-05T11:22:38.263Z,30.51
2024-01-05T11:23:38.159Z,29.76
2024-01-05T11:24:38.197Z,29.74
2024-01-05T11:25:38.170Z,30.12
2024-01-05T11:26:38.084Z,30.18
2024-01-05T11:27:38.140Z,30.00
2024-01-05T11:28:38.113Z,29.71
2024-01-05T11:29:38.007Z,29.51
2024-01-05T11:30:37.974Z,29.33
2024-01-05T11:31:37.809Z,27.66
2024-01-05T11:32:37.807Z,25.99
2024-01-05T11:33:39.712Z,24.53
2024-01-05T11:34:38.032Z,24.92
2024-01-05T11:35:38.376Z,25.06
2024-01-05T11:36:37.396Z,25.44
2024-01-05T11:37:37.241Z,25.51
2024-01-05T11:38:37.140Z,25.08
2024-01-05T11:39:37.112Z,25.91
2024-01-05T11:40:37.037Z,25.67
2024-01-05T11:41:36.951Z,25.81
2024-01-05T11:42:36.855Z,26.62
2024-01-05T11:43:36.868Z,26.39
2024-01-05T11:44:36.730Z,27.28
2024-01-05T11:45:36.620Z,26.31
2024-01-05T11:46:36.520Z,25.00
2024-01-05T11:47:36.415Z,24.47
2024-01-05T11:48:37.357Z,23.51
2024-01-05T11:49:36.343Z,22.94
2024-01-05T11:50:36.021Z,22.31
2024-01-05T11:51:36.053Z,21.85
2024-01-05T11:52:35.816Z,21.30
2024-01-05T11:53:35.710Z,20.21
2024-01-05T11:54:35.472Z,19.30
2024-01-05T11:55:35.417Z,19.14
2024-01-05T11:56:35.284Z,19.27
2024-01-05T11:57:35.112Z,18.90
2024-01-05T11:58:35.015Z,18.78
2024-01-05T11:59:34.877Z,18.25
2024-01-05T12:00:34.795Z,18.22
2024-01-05T12:01:34.656Z,17.89
2024-01-05T12:02:34.544Z,17.93
2024-01-05T12:03:34.513Z,18.21
2024-01-05T12:04:34.272Z,17.63
2024-01-05T12:05:34.175Z,17.08
2024-01-05T12:06:33.977Z,16.84
2024-01-05T12:07:33.902Z,16.37
2024-01-05T12:08:33.591Z,16.01
2024-01-05T12:09:33.488Z,15.77
2024-01-05T12:10:33.312Z,15.19
2024-01-05T12:11:33.159Z,15.30
2024-01-05T12:12:33.094Z,15.50
2024-01-05T12:13:32.812Z,14.90
2024-01-05T12:14:32.694Z,14.83
2024-01-05T12:15:32.558Z,14.66
2024-01-05T12:16:32.270Z,14.58
2024-01-05T12:17:32.123Z,14.42
2024-01-05T12:18:37.319Z,14.26
2024-01-05T12:19:32.894Z,14.52
2024-01-05T12:20:31.505Z,14.15
2024-01-05T12:21:31.238Z,14.14
2024-01-05T12:22:31.120Z,14.44
2024-01-05T12:23:30.804Z,14.69
2024-01-05T12:24:30.602Z,14.91
2024-01-05T12:25:30.401Z,15.20
2024-01-05T12:26:30.100Z,15.38
2024-01-05T12:27:29.947Z,15.56
2024-01-05T12:28:29.711Z,15.55
2024-01-05T12:29:29.504Z,15.84
2024-01-05T12:30:29.409Z,16.10
2024-01-05T12:31:29.209Z,16.08
2024-01-05T12:32:28.943Z,15.84
2024-01-05T12:33:29.026Z,15.79
2024-01-05T12:34:28.607Z,15.96
2024-01-05T12:35:28.413Z,16.00
2024-01-05T12:36:28.279Z,15.95
2024-01-05T12:37:28.027Z,16.11
2024-01-05T12:38:27.828Z,16.61
2024-01-05T12:39:27.646Z,17.14
2024-01-05T12:40:27.534Z,17.43
2024-01-05T12:41:28.360Z,17.61
2024-01-05T12:42:27.279Z,17.61
2024-01-05T12:43:27.030Z,17.78
2024-01-05T12:44:26.886Z,17.81
2024-01-05T12:45:26.794Z,17.53
2024-01-05T12:46:26.540Z,17.82
2024-01-05T12:47:26.507Z,17.19
2024-01-05T12:48:26.323Z,17.15
2024-01-05T12:49:26.744Z,17.26
2024-01-05T12:50:25.964Z,17.57
2024-01-05T12:51:25.909Z,18.17
2024-01-05T12:52:25.667Z,18.24
2024-01-05T12:53:25.570Z,18.62